Herbert C Jackson — WL3972 — position and weather

sailwx.info

Track history (hours):
 
Tides and Currents Weather Stations Pressure Air Temp Water Temp Dewpoint Dewpoint Depression Visibility Wind Speed Wind Dir Waves Ship Positions

Herbert C Jackson

Owner: THE INTERLAKE STEAMSHIP COMPANY, Middleburg Heights, OH. More information available from US FCC via Universal Licensing System and Coast Guard Vessel Documentation Center.

Last reported at 2014-Oct-31 12:00 UTC. Time now 2014-Oct-31 15:47 UTC.
Position N 43°36' W 082°24'.

Length 239 m; draft 6.4 m.

Type: Cargo ship. MMSI: 366904930.

Wind from 230 at 10 knots

Barometer 1012.0 mb
Air temperature 7.2 ° C
Water temperature 10.0 ° C

Date/timePositionNaut miles runAvg speedWind from/ knotsBaromVisibWave heightAir tempDewpointWater temp
2014-Oct-31 12:00N 43°36' W 082°24'1312.8 230 / 101012.0 7.2 10.0
2014-Oct-31 11:00N 43°48' W 082°30'1212.0 240 / 101012.0 6.5 9.5
2014-Oct-31 10:00N 44°00' W 082°30'1312.8 260 / 131012.3 6.1 9.0
2014-Oct-31 09:00N 44°12' W 082°36'1312.7 230 / 121011.3 7.5 8.8
2014-Oct-31 08:00N 44°24' W 082°42'1312.7 200 / 271012.3 7.3 8.4
2014-Oct-31 07:00N 44°36' W 082°48'3812.7 260 / 131012.0 7.3 8.2
2014-Oct-31 04:00N 45°12' W 083°06'7 7.3 250 / 141013.0 7.3 9.0
2014-Oct-31 03:00N 45°18' W 083°12'2914.7 230 / 141013.3 7.0 9.1
2014-Oct-31 01:00N 45°42' W 083°36'1514.6 220 / 121014.0 6.6 8.1
2014-Oct-31 00:00N 45°54' W 083°48'7 7.3 190 / 251014.7 6.4 6.9
2014-Oct-30 23:00N 46°00' W 083°54'1312.7 180 / 41015.0 5.6 7.6
2014-Oct-30 22:00N 46°12' W 084°00'1010.2 120 / 61015.0 5.6 7.7
2014-Oct-30 21:00N 46°18' W 084°12'6 6.0 150 / 41015.7 5.4 7.6
2014-Oct-30 20:00N 46°24' W 084°12'10 5.1 180 / 91015.4 6.2 7.9
2014-Oct-30 18:00N 46°30' W 084°24'0 0.0 250 / 81016.6 6.3 8.0
2014-Oct-30 17:00N 46°30' W 084°24'4 4.1 250 / 61017.6 6.3 7.9
2014-Oct-30 16:00N 46°30' W 084°30'1010.2 250 / 51017.6 5.5 8.0
2014-Oct-30 15:00N 46°36' W 084°42'1010.2 220 / 81017.6 5.1 8.2
2014-Oct-30 14:00N 46°42' W 084°54'1514.5 230 / 101017.6 4.7 8.3
2014-Oct-30 13:00N 46°54' W 085°06'1413.7 210 / 101017.6 4.8 7.2
2014-Oct-30 12:00N 46°48' W 085°24'1212.3 340 / 41017.6 5.0 7.1
2014-Oct-30 11:00N 46°48' W 085°42'1212.3 360 / 41017.6 5.0 6.2
2014-Oct-30 10:00N 46°48' W 086°00'1413.7 320 / 71017.6 5.5 7.7
2014-Oct-30 09:00N 46°42' W 086°18'1212.3 290 / 71017.6 5.5 7.3
2014-Oct-30 08:00N 46°42' W 086°36'1413.7 250 / 61017.9 5.5 7.7
2014-Oct-30 07:00N 46°36' W 086°54'1212.4 270 / 61017.9 5.4 6.6
2014-Oct-30 06:00N 46°36' W 087°12'8 8.2 220 / 61018.3 5.2 6.5
2014-Oct-30 05:00N 46°36' W 087°24'0 0.0 260 / 21018.6 4.7 7.1
2014-Oct-30 01:00N 46°36' W 087°24'0 0.0 300 / 31018.3 4.7 7.1
2014-Oct-30 00:00N 46°36' W 087°24'0 0.0 250 / 31018.3 4.5 7.0
2014-Oct-29 23:00N 46°36' W 087°24'6 6.0 330 / 41017.9 5.3 7.0
2014-Oct-29 22:00N 46°30' W 087°24'0 0.0 330 / 171017.3 5.7 6.9
2014-Oct-29 20:00N 46°30' W 087°24'0 0.0 340 / 121016.6 5.6 7.2
2014-Oct-29 18:00N 46°30' W 087°24'0 0.0 340 / 171015.6 5.8 7.2
2014-Oct-29 17:00N 46°30' W 087°24'0 0.0 320 / 141015.2 5.8 7.1
2014-Oct-29 16:00N 46°30' W 087°24'0 0.0 330 / 141014.9 5.5 7.1
2014-Oct-29 15:00N 46°30' W 087°24'0 0.0 340 / 81014.2 4.6 7.1
2014-Oct-29 14:00N 46°30' W 087°24'0 0.0 300 / 101013.5 4.2 7.0
2014-Oct-29 13:00N 46°30' W 087°24'0 0.0 310 / 81012.9 3.9 7.0
2014-Oct-29 12:00N 46°30' W 087°24'0 0.0 290 / 101011.5 3.9 7.0
2014-Oct-29 11:00N 46°30' W 087°24'18 8.8 280 / 101010.2 4.3 7.0
2014-Oct-29 09:00N 46°36' W 087°00'3311.2 280 / 261005.8 4.3 6.4
2014-Oct-29 06:00N 46°42' W 086°12'1010.2 260 / 271003.427.0 3.5 7.0 7.5
2014-Oct-29 05:00N 46°48' W 086°00'1212.3 270 / 311002.4 7.3 7.7
2014-Oct-29 04:00N 46°48' W 085°42'2512.3 240 / 271003.0 7.3 7.3
2014-Oct-29 02:00N 46°48' W 085°06'1010.2 220 / 241003.4 7.6 7.6
2014-Oct-29 01:00N 46°42' W 084°54'1514.6 230 / 201004.1 8.0 8.5
2014-Oct-29 00:00N 46°30' W 084°42'8 8.3 240 / 191003.7 8.3 8.6
2014-Oct-28 23:00N 46°30' W 084°30'4 4.1 290 / 111003.4 8.3 8.5
2014-Oct-28 22:00N 46°30' W 084°24'4 4.1 240 / 41004.1 7.3 8.2
2014-Oct-28 21:00N 46°30' W 084°18'15 7.3 220 / 41002.8 8.7 8.3
2014-Oct-28 19:00N 46°18' W 084°06'20 9.9 240 / 91001.5 9.8 8.0
2014-Oct-28 17:00N 46°00' W 083°54'20 9.9 240 / 201001.5 11.0 8.0
2014-Oct-28 15:00N 45°42' W 083°42'1514.6 260 / 26999.4 11.6 8.8
2014-Oct-28 14:00N 45°30' W 083°30'13 6.4 230 / 26999.8 14.9 8.7
2014-Oct-28 12:00N 45°18' W 083°24'0 0.0 180 / 15999.8 16.0 8.6
2014-Oct-28 11:00N 45°18' W 083°24'0 0.0 180 / 141000.1 15.2 8.6
2014-Oct-28 09:00N 45°18' W 083°24'0 0.0 150 / 51001.1 10.7 8.6
2014-Oct-28 08:00N 45°18' W 083°24'0 0.0 140 / 71001.8 10.7 8.6
2014-Oct-28 06:00N 45°18' W 083°24'0 0.0 140 / 121003.5 10.5 8.5
2014-Oct-28 05:00N 45°18' W 083°24'0 0.0 110 / 181003.9 10.4 8.5
2014-Oct-28 03:00N 45°18' W 083°24'0 0.0 090 / 121005.2 10.3 8.7
2014-Oct-28 02:00N 45°18' W 083°24'1010.4 080 / 201005.9 10.6 9.1
2014-Oct-28 01:00N 45°12' W 083°12'1312.7 060 / 181006.9 10.4 9.1
2014-Oct-28 00:00N 45°00' W 083°06'1312.7 120 / 191006.6 10.6 9.2
2014-Oct-27 23:00N 44°48' W 083°00'3812.7 100 / 201005.5 10.1 8.7
2014-Oct-27 20:00N 44°12' W 082°42'1312.8 080 / 231007.2 10.6 9.2
2014-Oct-27 19:00N 44°00' W 082°36'1312.8 110 / 221007.9 11.3 9.2
2014-Oct-27 18:00N 43°48' W 082°30'1818.0 120 / 181009.6 11.0 9.9
2014-Oct-27 17:00N 43°30' W 082°30'1212.0 120 / 141011.327.0 1.011.3 10.1
2014-Oct-27 16:00N 43°18' W 082°30'1312.8 150 / 141012.3 10.8 10.2
2014-Oct-27 15:00N 43°06' W 082°24'6 6.0 150 / 141013.3 10.0 10.1
2014-Oct-27 14:00N 43°00' W 082°24'19 9.3 160 / 91014.0 8.2 10.0
2014-Oct-27 12:00N 42°42' W 082°30'7 7.4 040 / 21014.0 2.9 10.1
2014-Oct-27 11:00N 42°36' W 082°36'2512.6 040 / 61013.3 5.9 10.4
2014-Oct-27 09:00N 42°18' W 083°00'4 4.4 350 / 21013.8 6.5 10.6
2014-Oct-27 08:00N 42°18' W 083°06'0 0.0 170 / 21013.8 7.5 11.8
2014-Oct-27 07:00N 42°18' W 083°06'4 4.4 100 / 11013.8 6.9 16.0
2014-Oct-27 06:00N 42°18' W 083°12'0 0.0 270 / 31013.8 8.8 16.7
2014-Oct-27 05:00N 42°18' W 083°12'0 0.0 290 / 21014.2 9.2 16.0
2014-Oct-27 04:00N 42°18' W 083°12'0 0.0 280 / 51014.5 10.1 15.2
2014-Oct-27 01:00N 42°18' W 083°12'9 3.0 320 / 71013.8 15.0 15.9
2014-Oct-26 22:00N 42°18' W 083°00'1110.7 250 / 91012.5 15.5 10.6
2014-Oct-26 21:00N 42°24' W 082°48'1514.9 280 / 111012.5 14.5 10.8
2014-Oct-26 20:00N 42°36' W 082°36'26 8.5 270 / 81012.1 14.4 10.6
2014-Oct-26 17:00N 43°00' W 082°24'1212.0 300 / 121012.7 11.3 9.7
2014-Oct-26 16:00N 43°12' W 082°24'1212.0 280 / 161012.7 10.3 10.1
2014-Oct-26 15:00N 43°24' W 082°24'2412.2 280 / 181012.3 9.5 10.4
2014-Oct-26 13:00N 43°48' W 082°30'4912.3 290 / 221010.6 9.0 9.4
2014-Oct-26 09:00N 44°30' W 083°06'1212.0 310 / 241008.6 9.7 9.2
2014-Oct-26 08:00N 44°42' W 083°06'2412.0 300 / 261007.9 9.7 9.4
2014-Oct-26 06:00N 45°06' W 083°06'1514.7 300 / 331005.5 10.3 9.4
2014-Oct-26 05:00N 45°18' W 083°18'2412.1 300 / 311005.5 10.6 9.4
2014-Oct-26 03:00N 45°30' W 083°48'1312.7 290 / 301005.9 11.5 9.2
2014-Oct-26 02:00N 45°42' W 083°54'1212.0 280 / 261005.2 11.0 9.0
2014-Oct-26 01:00N 45°54' W 083°54'1312.7 280 / 261004.5 11.1 8.7
2014-Oct-26 00:00N 46°06' W 084°00'20 6.6 290 / 241004.9 11.3 8.4
2014-Oct-25 21:00N 46°24' W 084°12'7 7.3 290 / 201004.5 10.8 8.9
2014-Oct-25 20:00N 46°30' W 084°18'8 4.1 280 / 131004.5 10.8 8.9
2014-Oct-25 18:00N 46°30' W 084°30'1010.2 310 / 291004.1 10.8 9.0
2014-Oct-25 17:00N 46°36' W 084°42'3110.4 290 / 281004.410.8 2.511.1 8.9
2014-Oct-25 14:00N 46°48' W 085°24'1212.3 270 / 191003.7 9.6 6.9
2014-Oct-25 13:00N 46°48' W 085°42'1616.4 270 / 211004.1 10.5 7.6
2014-Oct-25 12:00N 46°48' W 086°06'1413.7 270 / 191003.7 10.8 7.6
2014-Oct-25 11:00N 46°42' W 086°24'1212.3 280 / 191004.4 10.6 7.5
2014-Oct-25 10:00N 46°42' W 086°42'1413.7 270 / 181004.7 11.7 8.2
2014-Oct-25 09:00N 46°36' W 087°00'1212.4 230 / 141004.7 11.3 7.5
2014-Oct-25 08:00N 46°36' W 087°18'4 2.1 260 / 171005.1 13.7 7.6
2014-Oct-25 06:00N 46°36' W 087°24'0 0.0 280 / 31004.7 14.0 8.4
2014-Oct-25 05:00N 46°36' W 087°24'0 0.0 190 / 21005.4 13.2 8.4
2014-Oct-25 04:00N 46°36' W 087°24'0 0.0 200 / 21005.8 13.1 8.5
2014-Oct-25 02:00N 46°36' W 087°24'1 1.7 140 / 81007.5 12.1 8.4
2014-Oct-25 01:14N 46°35' W 087°23'4 3.1
2014-Oct-25 00:00N 46°36' W 087°18'818.3 180 / 271007.5 11.5 7.5
2014-Oct-24 23:33N 46°36' W 087°06'4 7.8
2014-Oct-24 23:00N 46°36' W 087°00'1316.6 170 / 241008.8 11.0 8.7
2014-Oct-24 22:13N 46°40' W 086°42'1112.9
2014-Oct-24 21:20N 46°42' W 086°26'515.4
2014-Oct-24 21:00N 46°42' W 086°18'1112.0 180 / 221009.8 11.5 7.8
2014-Oct-24 20:07N 46°45' W 086°03'2512.9
2014-Oct-24 18:10N 46°48' W 085°27'210.7
2014-Oct-24 18:00N 46°48' W 085°24'613.9 180 / 141012.5 9.0 8.0
2014-Oct-24 17:33N 46°49' W 085°15'611.3
2014-Oct-24 17:00N 46°48' W 085°06'614.6 190 / 131013.5 5.4 0.5 9.2 7.8
2014-Oct-24 16:33N 46°47' W 084°57'1612.9
2014-Oct-24 15:17N 46°34' W 084°43'413.2
2014-Oct-24 15:00N 46°30' W 084°42'1212.4 140 / 101015.2 7.5 9.1
2014-Oct-24 14:00N 46°30' W 084°24'10 3.4 100 / 51015.6 6.8 8.9
2014-Oct-24 11:00N 46°24' W 084°12'7 7.3 080 / 51015.4 6.2 8.8
2014-Oct-24 10:00N 46°18' W 084°06'5 9.2 080 / 21015.7 6.1 8.7
2014-Oct-24 09:24N 46°13' W 084°07'512.5
2014-Oct-24 09:00N 46°12' W 084°00'817.3 120 / 31016.0 8.1 8.4
2014-Oct-24 08:33N 46°04' W 084°01'611.4
2014-Oct-24 08:00N 46°00' W 083°54'511.5 270 / 31016.0 8.0 8.7
2014-Oct-24 07:33N 45°55' W 083°53'813.8
2014-Oct-24 07:00N 45°48' W 083°48'1514.6 220 / 111016.4 9.1 8.7
2014-Oct-24 06:00N 45°36' W 083°36'1010.3 210 / 81016.7 9.1 9.1
2014-Oct-24 05:00N 45°30' W 083°24'1312.7 240 / 61017.1 8.1 9.2
2014-Oct-24 04:00N 45°18' W 083°18'1514.7 240 / 101017.4 8.4 9.6
2014-Oct-24 03:00N 45°06' W 083°06'1312.7 240 / 131018.1 8.6 9.5
2014-Oct-24 02:00N 44°54' W 083°00'3812.7 240 / 121018.4 8.6 9.3
2014-Oct-23 23:00N 44°18' W 082°42'1312.7 240 / 201019.1 7.5 9.6
2014-Oct-23 22:00N 44°06' W 082°36'1312.8 290 / 141019.4 7.5 9.8
2014-Oct-23 21:00N 43°54' W 082°30'1312.8 360 / 101019.4 8.1 10.0
2014-Oct-23 20:00N 43°42' W 082°24'1312.8 1020.1 8.7 10.1
2014-Oct-23 19:00N 43°30' W 082°18'1212.0 350 / 91020.4 9.4 10.9
2014-Oct-23 18:00N 43°18' W 082°18'1312.8 330 / 121021.1 9.3 10.8
2014-Oct-23 17:00N 43°06' W 082°24'19 9.3 350 / 91022.1 8.8 10.0
2014-Oct-23 15:00N 42°48' W 082°30'1212.0 320 / 111023.2 8.6 10.6
2014-Oct-23 14:00N 42°36' W 082°30'1110.7 340 / 91023.5 7.2 10.7
2014-Oct-23 13:00N 42°30' W 082°42'1110.7 350 / 151022.6 6.5 10.6
2014-Oct-23 12:00N 42°24' W 082°54'1110.7 330 / 161023.0 4.7 10.4
2014-Oct-23 11:00N 42°18' W 083°06'0 0.0 350 / 61023.6 4.2 10.5
2014-Oct-23 10:00N 42°18' W 083°06'183 7.1 340 / 21024.0 5.0 15.7
2014-Oct-22 08:14N 45°21' W 083°16'912.4
2014-Oct-22 07:28N 45°29' W 083°24'5011.6
2014-Oct-22 03:08N 46°10' W 084°05'46 6.5
2014-Oct-21 20:00N 46°42' W 084°54'1010.2 350 / 91024.4 5.6 8.6
2014-Oct-21 19:00N 46°48' W 085°06'2512.3 020 / 141024.4 4.6 7.9
2014-Oct-21 17:00N 46°48' W 085°42'2512.3 030 / 171024.4 3.1 6.6
2014-Oct-21 15:00N 46°48' W 086°18'1413.7 030 / 181024.4 3.6 7.6
2014-Oct-21 14:00N 46°42' W 086°36'1212.3 030 / 241023.4 4.8 7.9
2014-Oct-21 13:00N 46°42' W 086°54'1010.2 020 / 201022.7 5.2 7.5
2014-Oct-21 12:00N 46°36' W 087°06'   020 / 201022.4 5.3 7.7
Track history (hours):
 
Tides and Currents Weather Stations Pressure Air Temp Water Temp Dewpoint Dewpoint Depression Visibility Wind Speed Wind Dir Waves Ship Positions

Herbert C Jackson

Owner: THE INTERLAKE STEAMSHIP COMPANY, Middleburg Heights, OH. More information available from US FCC via Universal Licensing System and Coast Guard Vessel Documentation Center.

Last reported at 2014-Oct-31 12:00 UTC. Time now 2014-Oct-31 15:47 UTC.
Position N 43°36' W 082°24'.

Length 239 m; draft 6.4 m.

Type: Cargo ship. MMSI: 366904930.

Wind from 230 at 10 knots

Barometer 1012.0 mb
Air temperature 7.2 ° C
Water temperature 10.0 ° C

Date/timePositionNaut miles runAvg speedWind from/ knotsBaromVisibWave heightAir tempDewpointWater temp
2014-Oct-31 12:00N 43°36' W 082°24'1312.8 230 / 101012.0 7.2 10.0
2014-Oct-31 11:00N 43°48' W 082°30'1212.0 240 / 101012.0 6.5 9.5
2014-Oct-31 10:00N 44°00' W 082°30'1312.8 260 / 131012.3 6.1 9.0
2014-Oct-31 09:00N 44°12' W 082°36'1312.7 230 / 121011.3 7.5 8.8
2014-Oct-31 08:00N 44°24' W 082°42'1312.7 200 / 271012.3 7.3 8.4
2014-Oct-31 07:00N 44°36' W 082°48'3812.7 260 / 131012.0 7.3 8.2
2014-Oct-31 04:00N 45°12' W 083°06'7 7.3 250 / 141013.0 7.3 9.0
2014-Oct-31 03:00N 45°18' W 083°12'2914.7 230 / 141013.3 7.0 9.1
2014-Oct-31 01:00N 45°42' W 083°36'1514.6 220 / 121014.0 6.6 8.1
2014-Oct-31 00:00N 45°54' W 083°48'7 7.3 190 / 251014.7 6.4 6.9
2014-Oct-30 23:00N 46°00' W 083°54'1312.7 180 / 41015.0 5.6 7.6
2014-Oct-30 22:00N 46°12' W 084°00'1010.2 120 / 61015.0 5.6 7.7
2014-Oct-30 21:00N 46°18' W 084°12'6 6.0 150 / 41015.7 5.4 7.6
2014-Oct-30 20:00N 46°24' W 084°12'10 5.1 180 / 91015.4 6.2 7.9
2014-Oct-30 18:00N 46°30' W 084°24'0 0.0 250 / 81016.6 6.3 8.0
2014-Oct-30 17:00N 46°30' W 084°24'4 4.1 250 / 61017.6 6.3 7.9
2014-Oct-30 16:00N 46°30' W 084°30'1010.2 250 / 51017.6 5.5 8.0
2014-Oct-30 15:00N 46°36' W 084°42'1010.2 220 / 81017.6 5.1 8.2
2014-Oct-30 14:00N 46°42' W 084°54'1514.5 230 / 101017.6 4.7 8.3
2014-Oct-30 13:00N 46°54' W 085°06'1413.7 210 / 101017.6 4.8 7.2
2014-Oct-30 12:00N 46°48' W 085°24'1212.3 340 / 41017.6 5.0 7.1
2014-Oct-30 11:00N 46°48' W 085°42'1212.3 360 / 41017.6 5.0 6.2
2014-Oct-30 10:00N 46°48' W 086°00'1413.7 320 / 71017.6 5.5 7.7
2014-Oct-30 09:00N 46°42' W 086°18'1212.3 290 / 71017.6 5.5 7.3
2014-Oct-30 08:00N 46°42' W 086°36'1413.7 250 / 61017.9 5.5 7.7
2014-Oct-30 07:00N 46°36' W 086°54'1212.4 270 / 61017.9 5.4 6.6
2014-Oct-30 06:00N 46°36' W 087°12'8 8.2 220 / 61018.3 5.2 6.5
2014-Oct-30 05:00N 46°36' W 087°24'0 0.0 260 / 21018.6 4.7 7.1
2014-Oct-30 01:00N 46°36' W 087°24'0 0.0 300 / 31018.3 4.7 7.1
2014-Oct-30 00:00N 46°36' W 087°24'0 0.0 250 / 31018.3 4.5 7.0
2014-Oct-29 23:00N 46°36' W 087°24'6 6.0 330 / 41017.9 5.3 7.0
2014-Oct-29 22:00N 46°30' W 087°24'0 0.0 330 / 171017.3 5.7 6.9
2014-Oct-29 20:00N 46°30' W 087°24'0 0.0 340 / 121016.6 5.6 7.2
2014-Oct-29 18:00N 46°30' W 087°24'0 0.0 340 / 171015.6 5.8 7.2
2014-Oct-29 17:00N 46°30' W 087°24'0 0.0 320 / 141015.2 5.8 7.1
2014-Oct-29 16:00N 46°30' W 087°24'0 0.0 330 / 141014.9 5.5 7.1
2014-Oct-29 15:00N 46°30' W 087°24'0 0.0 340 / 81014.2 4.6 7.1
2014-Oct-29 14:00N 46°30' W 087°24'0 0.0 300 / 101013.5 4.2 7.0
2014-Oct-29 13:00N 46°30' W 087°24'0 0.0 310 / 81012.9 3.9 7.0
2014-Oct-29 12:00N 46°30' W 087°24'0 0.0 290 / 101011.5 3.9 7.0
2014-Oct-29 11:00N 46°30' W 087°24'18 8.8 280 / 101010.2 4.3 7.0
2014-Oct-29 09:00N 46°36' W 087°00'3311.2 280 / 261005.8 4.3 6.4
2014-Oct-29 06:00N 46°42' W 086°12'1010.2 260 / 271003.427.0 3.5 7.0 7.5
2014-Oct-29 05:00N 46°48' W 086°00'1212.3 270 / 311002.4 7.3 7.7
2014-Oct-29 04:00N 46°48' W 085°42'2512.3 240 / 271003.0 7.3 7.3
2014-Oct-29 02:00N 46°48' W 085°06'1010.2 220 / 241003.4 7.6 7.6
2014-Oct-29 01:00N 46°42' W 084°54'1514.6 230 / 201004.1 8.0 8.5
2014-Oct-29 00:00N 46°30' W 084°42'8 8.3 240 / 191003.7 8.3 8.6
2014-Oct-28 23:00N 46°30' W 084°30'4 4.1 290 / 111003.4 8.3 8.5
2014-Oct-28 22:00N 46°30' W 084°24'4 4.1 240 / 41004.1 7.3 8.2
2014-Oct-28 21:00N 46°30' W 084°18'15 7.3 220 / 41002.8 8.7 8.3
2014-Oct-28 19:00N 46°18' W 084°06'20 9.9 240 / 91001.5 9.8 8.0
2014-Oct-28 17:00N 46°00' W 083°54'20 9.9 240 / 201001.5 11.0 8.0
2014-Oct-28 15:00N 45°42' W 083°42'1514.6 260 / 26999.4 11.6 8.8
2014-Oct-28 14:00N 45°30' W 083°30'13 6.4 230 / 26999.8 14.9 8.7
2014-Oct-28 12:00N 45°18' W 083°24'0 0.0 180 / 15999.8 16.0 8.6
2014-Oct-28 11:00N 45°18' W 083°24'0 0.0 180 / 141000.1 15.2 8.6
2014-Oct-28 09:00N 45°18' W 083°24'0 0.0 150 / 51001.1 10.7 8.6
2014-Oct-28 08:00N 45°18' W 083°24'0 0.0 140 / 71001.8 10.7 8.6
2014-Oct-28 06:00N 45°18' W 083°24'0 0.0 140 / 121003.5 10.5 8.5
2014-Oct-28 05:00N 45°18' W 083°24'0 0.0 110 / 181003.9 10.4 8.5
2014-Oct-28 03:00N 45°18' W 083°24'0 0.0 090 / 121005.2 10.3 8.7
2014-Oct-28 02:00N 45°18' W 083°24'1010.4 080 / 201005.9 10.6 9.1
2014-Oct-28 01:00N 45°12' W 083°12'1312.7 060 / 181006.9 10.4 9.1
2014-Oct-28 00:00N 45°00' W 083°06'1312.7 120 / 191006.6 10.6 9.2
2014-Oct-27 23:00N 44°48' W 083°00'3812.7 100 / 201005.5 10.1 8.7
2014-Oct-27 20:00N 44°12' W 082°42'1312.8 080 / 231007.2 10.6 9.2
2014-Oct-27 19:00N 44°00' W 082°36'1312.8 110 / 221007.9 11.3 9.2
2014-Oct-27 18:00N 43°48' W 082°30'1818.0 120 / 181009.6 11.0 9.9
2014-Oct-27 17:00N 43°30' W 082°30'1212.0 120 / 141011.327.0 1.011.3 10.1
2014-Oct-27 16:00N 43°18' W 082°30'1312.8 150 / 141012.3 10.8 10.2
2014-Oct-27 15:00N 43°06' W 082°24'6 6.0 150 / 141013.3 10.0 10.1
2014-Oct-27 14:00N 43°00' W 082°24'19 9.3 160 / 91014.0 8.2 10.0
2014-Oct-27 12:00N 42°42' W 082°30'7 7.4 040 / 21014.0 2.9 10.1
2014-Oct-27 11:00N 42°36' W 082°36'2512.6 040 / 61013.3 5.9 10.4
2014-Oct-27 09:00N 42°18' W 083°00'4 4.4 350 / 21013.8 6.5 10.6
2014-Oct-27 08:00N 42°18' W 083°06'0 0.0 170 / 21013.8 7.5 11.8
2014-Oct-27 07:00N 42°18' W 083°06'4 4.4 100 / 11013.8 6.9 16.0
2014-Oct-27 06:00N 42°18' W 083°12'0 0.0 270 / 31013.8 8.8 16.7
2014-Oct-27 05:00N 42°18' W 083°12'0 0.0 290 / 21014.2 9.2 16.0
2014-Oct-27 04:00N 42°18' W 083°12'0 0.0 280 / 51014.5 10.1 15.2
2014-Oct-27 01:00N 42°18' W 083°12'9 3.0 320 / 71013.8 15.0 15.9
2014-Oct-26 22:00N 42°18' W 083°00'1110.7 250 / 91012.5 15.5 10.6
2014-Oct-26 21:00N 42°24' W 082°48'1514.9 280 / 111012.5 14.5 10.8
2014-Oct-26 20:00N 42°36' W 082°36'26 8.5 270 / 81012.1 14.4 10.6
2014-Oct-26 17:00N 43°00' W 082°24'1212.0 300 / 121012.7 11.3 9.7
2014-Oct-26 16:00N 43°12' W 082°24'1212.0 280 / 161012.7 10.3 10.1
2014-Oct-26 15:00N 43°24' W 082°24'2412.2 280 / 181012.3 9.5 10.4
2014-Oct-26 13:00N 43°48' W 082°30'4912.3 290 / 221010.6 9.0 9.4
2014-Oct-26 09:00N 44°30' W 083°06'1212.0 310 / 241008.6 9.7 9.2
2014-Oct-26 08:00N 44°42' W 083°06'2412.0 300 / 261007.9 9.7 9.4
2014-Oct-26 06:00N 45°06' W 083°06'1514.7 300 / 331005.5 10.3 9.4
2014-Oct-26 05:00N 45°18' W 083°18'2412.1 300 / 311005.5 10.6 9.4
2014-Oct-26 03:00N 45°30' W 083°48'1312.7 290 / 301005.9 11.5 9.2
2014-Oct-26 02:00N 45°42' W 083°54'1212.0 280 / 261005.2 11.0 9.0
2014-Oct-26 01:00N 45°54' W 083°54'1312.7 280 / 261004.5 11.1 8.7
2014-Oct-26 00:00N 46°06' W 084°00'20 6.6 290 / 241004.9 11.3 8.4
2014-Oct-25 21:00N 46°24' W 084°12'7 7.3 290 / 201004.5 10.8 8.9
2014-Oct-25 20:00N 46°30' W 084°18'8 4.1 280 / 131004.5 10.8 8.9
2014-Oct-25 18:00N 46°30' W 084°30'1010.2 310 / 291004.1 10.8 9.0
2014-Oct-25 17:00N 46°36' W 084°42'3110.4 290 / 281004.410.8 2.511.1 8.9
2014-Oct-25 14:00N 46°48' W 085°24'1212.3 270 / 191003.7 9.6 6.9
2014-Oct-25 13:00N 46°48' W 085°42'1616.4 270 / 211004.1 10.5 7.6
2014-Oct-25 12:00N 46°48' W 086°06'1413.7 270 / 191003.7 10.8 7.6
2014-Oct-25 11:00N 46°42' W 086°24'1212.3 280 / 191004.4 10.6 7.5
2014-Oct-25 10:00N 46°42' W 086°42'1413.7 270 / 181004.7 11.7 8.2
2014-Oct-25 09:00N 46°36' W 087°00'1212.4 230 / 141004.7 11.3 7.5
2014-Oct-25 08:00N 46°36' W 087°18'4 2.1 260 / 171005.1 13.7 7.6
2014-Oct-25 06:00N 46°36' W 087°24'0 0.0 280 / 31004.7 14.0 8.4
2014-Oct-25 05:00N 46°36' W 087°24'0 0.0 190 / 21005.4 13.2 8.4
2014-Oct-25 04:00N 46°36' W 087°24'0 0.0 200 / 21005.8 13.1 8.5
2014-Oct-25 02:00N 46°36' W 087°24'1 1.7 140 / 81007.5 12.1 8.4
2014-Oct-25 01:14N 46°35' W 087°23'4 3.1
2014-Oct-25 00:00N 46°36' W 087°18'818.3 180 / 271007.5 11.5 7.5
2014-Oct-24 23:33N 46°36' W 087°06'4 7.8
2014-Oct-24 23:00N 46°36' W 087°00'1316.6 170 / 241008.8 11.0 8.7
2014-Oct-24 22:13N 46°40' W 086°42'1112.9
2014-Oct-24 21:20N 46°42' W 086°26'515.4
2014-Oct-24 21:00N 46°42' W 086°18'1112.0 180 / 221009.8 11.5 7.8
2014-Oct-24 20:07N 46°45' W 086°03'2512.9
2014-Oct-24 18:10N 46°48' W 085°27'210.7
2014-Oct-24 18:00N 46°48' W 085°24'613.9 180 / 141012.5 9.0 8.0
2014-Oct-24 17:33N 46°49' W 085°15'611.3
2014-Oct-24 17:00N 46°48' W 085°06'614.6 190 / 131013.5 5.4 0.5 9.2 7.8
2014-Oct-24 16:33N 46°47' W 084°57'1612.9
2014-Oct-24 15:17N 46°34' W 084°43'413.2
2014-Oct-24 15:00N 46°30' W 084°42'1212.4 140 / 101015.2 7.5 9.1
2014-Oct-24 14:00N 46°30' W 084°24'10 3.4 100 / 51015.6 6.8 8.9
2014-Oct-24 11:00N 46°24' W 084°12'7 7.3 080 / 51015.4 6.2 8.8
2014-Oct-24 10:00N 46°18' W 084°06'5 9.2 080 / 21015.7 6.1 8.7
2014-Oct-24 09:24N 46°13' W 084°07'512.5
2014-Oct-24 09:00N 46°12' W 084°00'817.3 120 / 31016.0 8.1 8.4
2014-Oct-24 08:33N 46°04' W 084°01'611.4
2014-Oct-24 08:00N 46°00' W 083°54'511.5 270 / 31016.0 8.0 8.7
2014-Oct-24 07:33N 45°55' W 083°53'813.8
2014-Oct-24 07:00N 45°48' W 083°48'1514.6 220 / 111016.4 9.1 8.7
2014-Oct-24 06:00N 45°36' W 083°36'1010.3 210 / 81016.7 9.1 9.1
2014-Oct-24 05:00N 45°30' W 083°24'1312.7 240 / 61017.1 8.1 9.2
2014-Oct-24 04:00N 45°18' W 083°18'1514.7 240 / 101017.4 8.4 9.6
2014-Oct-24 03:00N 45°06' W 083°06'1312.7 240 / 131018.1 8.6 9.5
2014-Oct-24 02:00N 44°54' W 083°00'3812.7 240 / 121018.4 8.6 9.3
2014-Oct-23 23:00N 44°18' W 082°42'1312.7 240 / 201019.1 7.5 9.6
2014-Oct-23 22:00N 44°06' W 082°36'1312.8 290 / 141019.4 7.5 9.8
2014-Oct-23 21:00N 43°54' W 082°30'1312.8 360 / 101019.4 8.1 10.0
2014-Oct-23 20:00N 43°42' W 082°24'1312.8 1020.1 8.7 10.1
2014-Oct-23 19:00N 43°30' W 082°18'1212.0 350 / 91020.4 9.4 10.9
2014-Oct-23 18:00N 43°18' W 082°18'1312.8 330 / 121021.1 9.3 10.8
2014-Oct-23 17:00N 43°06' W 082°24'19 9.3 350 / 91022.1 8.8 10.0
2014-Oct-23 15:00N 42°48' W 082°30'1212.0 320 / 111023.2 8.6 10.6
2014-Oct-23 14:00N 42°36' W 082°30'1110.7 340 / 91023.5 7.2 10.7
2014-Oct-23 13:00N 42°30' W 082°42'1110.7 350 / 151022.6 6.5 10.6
2014-Oct-23 12:00N 42°24' W 082°54'1110.7 330 / 161023.0 4.7 10.4
2014-Oct-23 11:00N 42°18' W 083°06'0 0.0 350 / 61023.6 4.2 10.5
2014-Oct-23 10:00N 42°18' W 083°06'183 7.1 340 / 21024.0 5.0 15.7
2014-Oct-22 08:14N 45°21' W 083°16'912.4
2014-Oct-22 07:28N 45°29' W 083°24'5011.6
2014-Oct-22 03:08N 46°10' W 084°05'46 6.5
2014-Oct-21 20:00N 46°42' W 084°54'1010.2 350 / 91024.4 5.6 8.6
2014-Oct-21 19:00N 46°48' W 085°06'2512.3 020 / 141024.4 4.6 7.9
2014-Oct-21 17:00N 46°48' W 085°42'2512.3 030 / 171024.4 3.1 6.6
2014-Oct-21 15:00N 46°48' W 086°18'1413.7 030 / 181024.4 3.6 7.6
2014-Oct-21 14:00N 46°42' W 086°36'1212.3 030 / 241023.4 4.8 7.9
2014-Oct-21 13:00N 46°42' W 086°54'1010.2 020 / 201022.7 5.2 7.5
2014-Oct-21 12:00N 46°36' W 087°06'   020 / 201022.4 5.3 7.7

Dump ship's entire track history